Time;durP1;ratioP1;P1;durP2;ratioP2;P2;SDS_P1;SDS_P2;PMS_P1;PMS_P2;Temp;Humidity;BMP_temperature;BMP_pressure;BME280_temperature;BME280_humidity;BME280_pressure;Samples;Min_cycle;Max_cycle;Signal;HPM_P1;HPM_P2
2022/07/25 00:01:28;;;;;;;11.27;7.03;;;;;;;20.19;100.00;98476.03;5060409;28;20435;-65
2022/07/25 00:03:53;;;;;;;8.55;6.78;;;;;;;20.02;100.00;98479.88;5063782;28;20016;-65
2022/07/25 00:06:19;;;;;;;11.70;6.90;;;;;;;20.09;100.00;98474.09;5072212;28;20025;-66
2022/07/25 00:08:44;;;;;;;11.70;6.88;;;;;;;19.99;100.00;98474.09;5067487;28;20032;-66
2022/07/25 00:11:09;;;;;;;7.45;6.45;;;;;;;19.89;100.00;98470.25;5073078;28;20051;-66
2022/07/25 00:13:34;;;;;;;8.85;7.20;;;;;;;19.86;100.00;98465.31;5075136;28;20020;-66
2022/07/25 00:16:00;;;;;;;9.05;6.90;;;;;;;19.86;100.00;98467.25;5060368;28;20028;-66
2022/07/25 00:18:25;;;;;;;7.72;6.80;;;;;;;19.67;100.00;98445.75;5058558;28;20032;-66
2022/07/25 00:20:51;;;;;;;9.63;6.72;;;;;;;19.73;100.00;98454.00;5062947;28;20036;-67
2022/07/25 00:23:16;;;;;;;10.70;7.50;;;;;;;19.80;100.00;98460.06;5068826;28;20036;-66
2022/07/25 00:25:41;;;;;;;12.30;6.97;;;;;;;19.75;100.00;98466.38;5064373;28;20029;-66
2022/07/25 00:28:07;;;;;;;10.70;7.30;;;;;;;19.79;100.00;98462.00;5067520;28;20497;-66
2022/07/25 00:30:32;;;;;;;9.50;6.82;;;;;;;19.64;100.00;98442.72;5061486;28;20037;-65
2022/07/25 00:32:57;;;;;;;8.13;6.80;;;;;;;19.65;100.00;98445.22;5063691;28;20040;-66
2022/07/25 00:35:23;;;;;;;17.42;7.53;;;;;;;19.66;100.00;98462.50;5066070;28;20028;-66
2022/07/25 00:37:48;;;;;;;9.23;7.35;;;;;;;19.62;100.00;98461.38;5063805;28;20111;-64
2022/07/25 00:40:13;;;;;;;10.77;7.38;;;;;;;19.58;100.00;98472.06;5071248;28;20021;-66
2022/07/25 00:42:39;;;;;;;9.85;7.05;;;;;;;19.52;100.00;98469.56;5062296;28;20042;-66
2022/07/25 00:45:04;;;;;;;8.73;6.95;;;;;;;19.46;100.00;98471.47;5065861;28;20130;-66
2022/07/25 00:47:30;;;;;;;9.32;6.88;;;;;;;19.44;100.00;98460.78;5070778;28;20036;-66
2022/07/25 00:49:55;;;;;;;8.95;7.03;;;;;;;19.46;100.00;98466.00;5060976;28;20027;-66
2022/07/25 00:52:22;;;;;;;9.20;7.28;;;;;;;19.42;100.00;98449.25;5071382;28;20397;-65
2022/07/25 00:54:48;;;;;;;14.38;7.70;;;;;;;19.56;100.00;98454.22;5069089;28;20116;-67
2022/07/25 00:57:13;;;;;;;10.57;7.72;;;;;;;19.58;100.00;98457.53;5063743;28;20119;-66
2022/07/25 00:59:38;;;;;;;10.20;7.13;;;;;;;19.57;100.00;98461.34;5073069;28;20088;-70
2022/07/25 01:02:03;;;;;;;9.95;7.70;;;;;;;19.53;100.00;98455.59;5074654;28;20024;-67
2022/07/25 01:04:29;;;;;;;8.27;6.95;;;;;;;19.58;100.00;98455.59;5070197;28;20020;-66
2022/07/25 01:06:54;;;;;;;10.00;7.72;;;;;;;19.48;100.00;98450.91;5067824;28;20073;-67
2022/07/25 01:09:19;;;;;;;12.05;7.38;;;;;;;19.43;100.00;98450.91;5063898;28;20028;-67
2022/07/25 01:11:45;;;;;;;10.48;7.18;;;;;;;19.38;100.00;98453.63;5060863;28;20024;-66
2022/07/25 01:14:10;;;;;;;10.68;7.43;;;;;;;19.32;100.00;98449.22;5059266;28;20029;-67
2022/07/25 01:16:36;;;;;;;9.18;7.43;;;;;;;19.31;100.00;98442.09;5068162;28;20027;-67
2022/07/25 01:19:01;;;;;;;10.35;6.97;;;;;;;19.22;100.00;98454.66;5055760;28;20434;-66
2022/07/25 01:21:27;;;;;;;11.00;7.82;;;;;;;19.15;100.00;98452.19;5070136;28;20032;-67
2022/07/25 01:23:52;;;;;;;11.38;7.22;;;;;;;19.07;100.00;98449.94;5059134;28;20025;-66
2022/07/25 01:26:18;;;;;;;12.82;7.32;;;;;;;18.89;100.00;98431.19;5064805;28;20030;-66
2022/07/25 01:28:43;;;;;;;9.93;7.85;;;;;;;18.97;100.00;98453.47;5063734;28;20549;-67
2022/07/25 01:31:08;;;;;;;13.02;8.18;;;;;;;18.90;100.00;98450.13;5053601;28;20056;-67
2022/07/25 01:33:34;;;;;;;11.68;8.35;;;;;;;18.89;100.00;98439.44;5067866;28;20104;-67
2022/07/25 01:35:59;;;;;;;10.50;8.45;;;;;;;18.86;100.00;98439.97;5061594;28;20596;-68
2022/07/25 01:38:24;;;;;;;10.93;8.07;;;;;;;18.86;100.00;98437.22;5069023;28;20036;-66
2022/07/25 01:40:50;;;;;;;10.80;7.80;;;;;;;18.90;100.00;98439.16;5067338;28;20020;-66
2022/07/25 01:43:15;;;;;;;12.18;8.15;;;;;;;18.94;100.00;98431.22;5069495;28;20025;-67
2022/07/25 01:45:41;;;;;;;12.23;8.48;;;;;;;18.93;100.00;98432.34;5068008;28;20041;-66
2022/07/25 01:48:06;;;;;;;11.90;8.05;;;;;;;18.85;100.00;98433.66;5065270;28;20497;-67
2022/07/25 01:50:32;;;;;;;9.30;7.72;;;;;;;18.87;100.00;98441.63;5077107;22;20563;-67
2022/07/25 01:52:57;;;;;;;10.02;7.15;;;;;;;18.79;100.00;98412.81;5062081;28;20028;-67
2022/07/25 01:55:23;;;;;;;9.98;7.72;;;;;;;18.91;100.00;98431.75;5062518;28;20029;-67
2022/07/25 01:57:48;;;;;;;11.50;7.78;;;;;;;18.92;100.00;98428.78;5058069;28;20087;-67
2022/07/25 02:00:14;;;;;;;9.95;7.72;;;;;;;18.35;100.00;98341.84;5049645;28;20087;-67
2022/07/25 02:02:40;;;;;;;11.32;7.82;;;;;;;18.83;100.00;98428.44;5062217;28;20033;-67
2022/07/25 02:05:07;;;;;;;11.07;7.82;;;;;;;18.78;100.00;98428.41;5043766;28;20127;-67
2022/07/25 02:07:32;;;;;;;10.77;7.57;;;;;;;18.86;100.00;98423.50;5047017;28;20040;-67
2022/07/25 02:09:58;;;;;;;10.65;7.93;;;;;;;18.63;100.00;98403.66;5046666;28;20029;-67
2022/07/25 02:12:23;;;;;;;11.55;7.88;;;;;;;18.61;100.00;98394.88;5049129;28;20092;-68
2022/07/25 02:14:48;;;;;;;10.52;8.13;;;;;;;18.65;100.00;98406.09;5045982;28;20027;-67
2022/07/25 02:17:14;;;;;;;11.45;8.48;;;;;;;18.66;100.00;98411.34;5043869;28;20048;-67
2022/07/25 02:19:39;;;;;;;12.25;8.02;;;;;;;18.63;100.00;98403.66;5049615;28;20025;-67
2022/07/25 02:22:04;;;;;;;17.13;8.65;;;;;;;18.55;100.00;98391.28;5055841;28;20466;-67
2022/07/25 02:24:31;;;;;;;10.75;7.40;;;;;;;18.66;100.00;98402.28;5054167;28;20052;-67
2022/07/25 02:26:56;;;;;;;10.52;7.75;;;;;;;18.62;100.00;98402.00;5043249;28;20037;-67
2022/07/25 02:29:21;;;;;;;12.50;7.40;;;;;;;18.58;100.00;98389.94;5041421;28;20526;-67
2022/07/25 02:31:47;;;;;;;13.07;7.95;;;;;;;18.62;100.00;98397.31;5043275;28;20032;-67
2022/07/25 02:34:12;;;;;;;10.68;7.55;;;;;;;18.58;100.00;98400.88;5046587;28;20029;-67
2022/07/25 02:36:38;;;;;;;14.68;7.35;;;;;;;18.62;100.00;98385.53;5045952;28;20120;-68
2022/07/25 02:39:03;;;;;;;9.80;7.63;;;;;;;18.68;100.00;98391.88;5047582;28;20097;-67
2022/07/25 02:41:28;;;;;;;10.25;7.32;;;;;;;18.66;100.00;98394.06;5049042;28;20378;-67
2022/07/25 02:43:54;;;;;;;11.25;7.82;;;;;;;18.60;100.00;98393.19;5054899;28;20092;-67
2022/07/25 02:46:19;;;;;;;13.50;7.15;;;;;;;18.60;100.00;98394.03;5038433;28;20037;-67
2022/07/25 02:48:45;;;;;;;10.30;7.72;;;;;;;18.56;100.00;98389.34;5050471;28;20398;-67
2022/07/25 02:51:10;;;;;;;10.05;7.65;;;;;;;18.59;100.00;98386.91;5051661;28;20052;-67
2022/07/25 02:53:35;;;;;;;10.70;7.55;;;;;;;18.62;100.00;98375.41;5060676;28;20496;-67
2022/07/25 02:56:01;;;;;;;11.63;8.48;;;;;;;18.64;100.00;98386.09;5045845;28;20132;-67
2022/07/25 02:58:26;;;;;;;12.15;7.95;;;;;;;18.65;100.00;98390.50;5041759;28;20123;-67
2022/07/25 03:00:51;;;;;;;13.10;8.45;;;;;;;18.66;100.00;98383.13;5048704;28;20112;-67
2022/07/25 03:03:17;;;;;;;10.57;7.85;;;;;;;18.67;100.00;98377.34;5044824;28;20144;-67
2022/07/25 03:05:42;;;;;;;10.32;6.88;;;;;;;18.70;100.00;98386.97;5045684;28;20389;-67
2022/07/25 03:08:07;;;;;;;11.18;7.90;;;;;;;18.65;100.00;98386.94;5045635;28;20094;-67
2022/07/25 03:10:33;;;;;;;11.63;7.88;;;;;;;18.71;100.00;98388.63;5051752;28;20021;-68
2022/07/25 03:12:58;;;;;;;9.25;7.03;;;;;;;18.57;100.00;98360.84;5053932;28;20028;-67
2022/07/25 03:15:23;;;;;;;14.00;8.10;;;;;;;18.67;100.00;98377.34;5044152;28;20032;-67
2022/07/25 03:17:49;;;;;;;11.45;7.63;;;;;;;18.67;100.00;98371.88;5047857;28;20044;-67
2022/07/25 03:20:14;;;;;;;10.02;7.43;;;;;;;18.70;100.00;98374.06;5047044;28;20032;-67
2022/07/25 03:22:40;;;;;;;9.55;7.15;;;;;;;18.74;100.00;98377.94;5047297;28;20032;-68
2022/07/25 03:25:06;;;;;;;11.02;7.32;;;;;;;18.90;100.00;98372.56;5048836;28;20393;-67
2022/07/25 03:27:31;;;;;;;10.30;7.32;;;;;;;19.06;100.00;98368.78;5049900;28;20035;-67
2022/07/25 03:29:57;;;;;;;13.05;7.15;;;;;;;19.12;100.00;98356.72;5046681;28;20029;-67
2022/07/25 03:32:22;;;;;;;9.30;6.80;;;;;;;19.19;100.00;98367.44;5048549;28;20020;-67
2022/07/25 03:34:47;;;;;;;10.23;7.40;;;;;;;19.25;100.00;98355.38;5045764;28;20028;-67
2022/07/25 03:37:13;;;;;;;10.32;7.00;;;;;;;19.14;100.00;98346.31;5041984;28;20441;-67
2022/07/25 03:39:38;;;;;;;11.70;7.47;;;;;;;19.13;100.00;98352.91;5039627;28;20033;-67
2022/07/25 03:42:03;;;;;;;9.40;7.00;;;;;;;19.11;100.00;98351.53;5048628;28;20381;-67
2022/07/25 03:44:29;;;;;;;9.88;7.70;;;;;;;19.05;100.00;98348.75;5044279;28;20406;-67
2022/07/25 03:46:54;;;;;;;11.35;7.68;;;;;;;19.08;100.00;98349.31;5044293;28;20698;-66
2022/07/25 03:49:19;;;;;;;11.45;7.60;;;;;;;18.96;100.00;98344.88;5046221;28;20064;-66
2022/07/25 03:51:45;;;;;;;13.23;7.78;;;;;;;18.91;100.00;98350.34;5047729;28;20052;-66
2022/07/25 03:54:14;;;;;;;12.40;7.38;;;;;;;18.83;100.00;98343.47;5047779;28;20063;-59
2022/07/25 03:56:44;;;;;;;13.65;7.85;;;;;;;18.70;100.00;98346.66;5046094;28;20119;-63
2022/07/25 03:59:12;;;;;;;10.43;8.02;;;;;;;18.55;100.00;98347.44;5050873;28;20025;-62
2022/07/25 04:01:38;;;;;;;11.88;8.75;;;;;;;18.39;100.00;98352.03;5055121;28;20025;-64
2022/07/25 04:04:04;;;;;;;10.40;7.43;;;;;;;18.23;100.00;98327.53;5058762;28;20465;-63
2022/07/25 04:06:29;;;;;;;9.48;7.72;;;;;;;18.43;100.00;98338.59;5045176;28;20091;-66
2022/07/25 04:08:55;;;;;;;13.98;8.13;;;;;;;18.58;100.00;98346.91;5046151;28;20362;-66
2022/07/25 04:11:21;;;;;;;12.35;7.90;;;;;;;18.68;100.00;98326.97;5051332;28;20025;-66
2022/07/25 04:13:47;;;;;;;11.77;7.63;;;;;;;18.91;100.00;98344.03;5047678;28;20056;-62
2022/07/25 04:16:13;;;;;;;12.23;8.07;;;;;;;19.03;100.00;98342.72;5048074;28;20115;-63
2022/07/25 04:18:39;;;;;;;11.45;8.10;;;;;;;19.13;100.00;98339.19;5050978;28;20036;-65
2022/07/25 04:21:06;;;;;;;9.05;7.28;;;;;;;19.22;100.00;98332.06;5049902;28;20051;-66
2022/07/25 04:23:31;;;;;;;9.95;7.85;;;;;;;19.14;100.00;98342.75;5050168;28;20534;-64
2022/07/25 04:25:57;;;;;;;9.93;8.15;;;;;;;18.99;100.00;98335.28;5040550;28;20120;-63
2022/07/25 04:28:24;;;;;;;12.25;7.93;;;;;;;19.07;100.00;98331.22;5049766;28;20475;-67
2022/07/25 04:30:49;;;;;;;10.52;8.15;;;;;;;19.04;100.00;98327.91;5045547;28;20055;-61
2022/07/25 04:33:14;;;;;;;12.40;7.85;;;;;;;19.07;100.00;98333.94;5054622;28;20025;-64
2022/07/25 04:35:40;;;;;;;11.50;8.30;;;;;;;19.15;100.00;98333.41;5040820;28;20036;-60
2022/07/25 04:38:05;;;;;;;11.88;7.80;;;;;;;19.20;100.00;98326.06;5043923;28;20395;-60
2022/07/25 04:40:31;;;;;;;11.43;8.40;;;;;;;19.36;100.00;98334.28;5045802;28;20490;-62
2022/07/25 04:42:56;;;;;;;11.65;7.82;;;;;;;19.46;100.00;98326.88;5047572;28;20029;-62
2022/07/25 04:45:22;;;;;;;9.50;6.97;;;;;;;19.60;100.00;98323.63;5045723;28;20025;-64
2022/07/25 04:47:47;;;;;;;11.55;6.85;;;;;;;19.68;100.00;98334.09;5051314;28;20052;-64
2022/07/25 04:50:14;;;;;;;9.35;7.25;;;;;;;19.82;100.00;98329.69;5055480;28;20027;-64
2022/07/25 04:52:39;;;;;;;8.40;7.00;;;;;;;19.85;100.00;98309.09;5061071;28;20032;-64
2022/07/25 04:55:05;;;;;;;10.32;7.07;;;;;;;20.08;100.00;98324.16;5047934;28;20052;-67
2022/07/25 04:57:31;;;;;;;9.95;7.05;;;;;;;20.26;100.00;98326.31;5043114;28;20577;-64
2022/07/25 04:59:57;;;;;;;9.98;7.75;;;;;;;20.41;99.48;98309.00;5052585;28;20028;-64
2022/07/25 05:02:26;;;;;;;10.10;7.03;;;;;;;20.55;97.71;98328.47;5050317;28;20543;-63
2022/07/25 05:04:51;;;;;;;9.88;7.75;;;;;;;20.66;95.59;98316.34;5044399;28;20055;-61
2022/07/25 05:07:17;;;;;;;9.63;7.10;;;;;;;20.74;95.60;98315.75;5049058;28;20056;-63
2022/07/25 05:09:43;;;;;;;11.00;7.55;;;;;;;20.92;94.22;98324.47;5050106;28;20065;-63
2022/07/25 05:12:08;;;;;;;13.10;7.90;;;;;;;21.04;92.85;98321.38;5056382;28;20057;-63
2022/07/25 05:14:33;;;;;;;9.95;7.40;;;;;;;21.05;93.06;98321.09;5040658;28;20144;-62
2022/07/25 05:16:59;;;;;;;9.20;7.28;;;;;;;21.18;91.22;98323.22;5041342;28;20032;-66
2022/07/25 05:19:24;;;;;;;10.98;7.32;;;;;;;21.32;88.01;98311.59;5043686;28;20427;-62
2022/07/25 05:21:50;;;;;;;11.95;7.75;;;;;;;21.37;87.21;98306.03;5043879;28;20150;-66
2022/07/25 05:24:15;;;;;;;11.77;7.35;;;;;;;21.60;86.72;98321.88;5045196;28;20206;-64
2022/07/25 05:26:41;;;;;;;12.43;7.80;;;;;;;21.75;84.98;98317.34;5043000;28;20027;-62
2022/07/25 05:29:06;;;;;;;11.15;6.80;;;;;;;21.87;83.77;98312.28;5047822;28;20025;-68
2022/07/25 05:31:31;;;;;;;11.80;7.00;;;;;;;21.89;81.82;98304.56;5047165;28;20021;-69
2022/07/25 05:33:56;;;;;;;8.70;6.90;;;;;;;22.20;82.66;98315.31;5048478;28;20120;-66
2022/07/25 05:36:22;;;;;;;9.85;6.90;;;;;;;22.38;80.68;98314.56;5048642;28;20036;-68
2022/07/25 05:38:47;;;;;;;12.48;7.40;;;;;;;22.60;77.37;98304.94;5047713;28;20363;-68
2022/07/25 05:41:12;;;;;;;10.05;7.05;;;;;;;22.64;77.56;98315.09;5040979;28;20398;-67
2022/07/25 05:43:38;;;;;;;12.27;7.45;;;;;;;22.89;77.11;98316.69;5047356;28;20047;-66
2022/07/25 05:46:04;;;;;;;11.77;6.85;;;;;;;22.98;77.53;98314.13;5041977;28;20085;-66
2022/07/25 05:48:30;;;;;;;11.15;7.03;;;;;;;23.09;77.96;98317.56;5053064;28;20029;-68
2022/07/25 05:50:57;;;;;;;9.30;7.32;;;;;;;23.20;76.45;98310.78;5048918;28;20048;-66
2022/07/25 05:53:23;;;;;;;10.20;7.00;;;;;;;23.38;74.96;98314.66;5050301;28;20385;-62
2022/07/25 05:55:48;;;;;;;11.85;7.35;;;;;;;23.53;75.13;98306.16;5046914;28;20041;-69
2022/07/25 05:58:14;;;;;;;11.63;7.40;;;;;;;23.57;73.95;98298.06;5047076;28;20029;-66
2022/07/25 06:00:39;;;;;;;15.75;7.72;;;;;;;23.62;74.52;98295.22;5046920;28;20044;-64
2022/07/25 06:03:04;;;;;;;12.15;7.60;;;;;;;23.85;72.88;98310.06;5050410;28;20032;-64
2022/07/25 06:05:30;;;;;;;12.32;6.95;;;;;;;24.09;71.16;98301.63;5052286;28;21184;-63
2022/07/25 06:07:55;;;;;;;12.70;6.97;;;;;;;24.19;70.50;98284.88;5050563;28;20092;-64
2022/07/25 06:10:21;;;;;;;11.77;7.47;;;;;;;24.41;69.18;98288.88;5038612;28;20036;-66
2022/07/25 06:12:47;;;;;;;9.30;7.18;;;;;;;24.66;68.16;98284.81;5047042;28;20033;-65
2022/07/25 06:15:12;;;;;;;11.27;7.47;;;;;;;25.07;67.59;98281.97;5049502;28;20110;-65
2022/07/25 06:17:37;;;;;;;10.93;7.00;;;;;;;25.43;63.87;98289.47;5045577;28;20485;-66
2022/07/25 06:20:03;;;;;;;12.75;6.90;;;;;;;25.78;61.55;98292.47;5037766;28;20045;-65
2022/07/25 06:22:29;;;;;;;16.92;7.15;;;;;;;26.01;59.60;98287.78;5039754;28;20021;-65
2022/07/25 06:24:55;;;;;;;12.35;7.00;;;;;;;26.18;58.93;98273.19;5047122;28;20112;-65
2022/07/25 06:27:20;;;;;;;11.20;7.05;;;;;;;26.45;58.23;98275.75;5050044;28;20099;-65
2022/07/25 06:29:46;;;;;;;11.65;7.00;;;;;;;26.60;58.52;98282.03;5039684;28;20032;-66
2022/07/25 06:32:11;;;;;;;11.55;7.15;;;;;;;26.93;57.81;98278.84;5054756;28;20020;-65
2022/07/25 06:34:37;;;;;;;12.70;6.80;;;;;;;27.34;56.17;98272.06;5057161;28;20033;-63
2022/07/25 06:37:02;;;;;;;10.77;6.47;;;;;;;27.79;54.32;98263.34;5043619;28;20087;-65
2022/07/25 06:39:28;;;;;;;9.05;6.38;;;;;;;28.22;51.07;98276.31;5045032;28;20029;-66
2022/07/25 06:41:53;;;;;;;11.73;6.60;;;;;;;28.58;49.67;98262.81;5049976;28;20051;-66
2022/07/25 06:44:18;;;;;;;12.35;6.32;;;;;;;28.93;48.18;98259.00;5046499;28;20086;-70
2022/07/25 06:46:44;;;;;;;8.82;6.32;;;;;;;29.78;46.35;98266.19;5050438;28;20082;-64
2022/07/25 06:49:09;;;;;;;7.28;6.03;;;;;;;30.78;44.32;98264.84;5042074;28;20037;-67
2022/07/25 06:51:34;;;;;;;11.20;6.75;;;;;;;31.85;41.81;98266.44;5047139;28;20066;-65
2022/07/25 06:54:00;;;;;;;8.60;6.55;;;;;;;33.74;38.95;98263.78;5035923;28;20021;-62
2022/07/25 06:56:29;;;;;;;11.02;6.25;;;;;;;34.52;36.93;98264.44;5040688;28;20033;-62
2022/07/25 06:58:55;;;;;;;7.18;5.95;;;;;;;35.69;34.54;98258.13;5040454;28;20033;-63
2022/07/25 07:01:20;;;;;;;10.35;6.10;;;;;;;36.01;33.78;98254.84;5053995;28;20486;-61
2022/07/25 07:03:45;;;;;;;11.20;6.55;;;;;;;37.24;32.51;98261.94;5038951;28;20025;-62
2022/07/25 07:06:10;;;;;;;9.05;5.80;;;;;;;38.66;30.12;98265.59;5038680;28;21746;-60
2022/07/25 07:08:36;;;;;;;11.25;5.90;;;;;;;37.71;31.16;98262.97;5043268;28;20025;-59
2022/07/25 07:11:02;;;;;;;7.97;6.30;;;;;;;37.90;30.76;98259.00;5044131;28;20025;-61
2022/07/25 07:13:27;;;;;;;7.32;6.28;;;;;;;38.40;30.06;98258.28;5041041;28;20119;-61
2022/07/25 07:15:53;;;;;;;10.02;6.00;;;;;;;38.43;30.58;98260.34;5042265;28;20083;-64
2022/07/25 07:18:19;;;;;;;10.45;6.45;;;;;;;38.32;30.06;98262.31;5037571;28;20037;-65
2022/07/25 07:20:45;;;;;;;11.80;5.97;;;;;;;37.99;30.48;98252.19;5039571;28;20390;-72
2022/07/25 07:23:10;;;;;;;10.50;5.55;;;;;;;39.14;29.23;98244.50;5042944;28;20055;-72
2022/07/25 07:25:35;;;;;;;7.93;6.07;;;;;;;38.33;30.46;98250.63;5048804;28;20059;-72
2022/07/25 07:28:01;;;;;;;8.63;5.65;;;;;;;39.21;29.83;98255.81;5038084;28;20116;-70
2022/07/25 07:30:27;;;;;;;9.75;5.72;;;;;;;39.64;29.18;98255.66;5044561;28;20028;-68
2022/07/25 07:32:52;;;;;;;10.10;6.70;;;;;;;39.64;28.97;98261.34;5045361;28;20362;-67
2022/07/25 07:35:18;;;;;;;5.95;5.32;;;;;;;39.53;28.49;98241.56;5039283;28;20028;-71
2022/07/25 07:37:45;;;;;;;6.20;5.60;;;;;;;39.01;29.27;98261.94;5050219;28;20052;-71
2022/07/25 07:40:12;;;;;;;7.63;5.55;;;;;;;38.70;30.08;98248.59;5049986;28;20040;-65
2022/07/25 07:42:45;;;;;;;11.13;6.00;;;;;;;38.28;30.63;98248.19;5046201;28;20029;-75
2022/07/25 07:45:23;;;;;;;7.93;6.13;;;;;;;40.85;27.78;98256.09;5040948;28;20107;-68
2022/07/25 07:47:50;;;;;;;7.13;5.63;;;;;;;41.41;27.28;98244.59;5046557;28;20035;-72
2022/07/25 07:50:18;;;;;;;7.75;6.18;;;;;;;41.42;26.26;98229.94;5045425;28;20041;-73
2022/07/25 07:52:45;;;;;;;6.43;5.82;;;;;;;39.97;28.30;98245.00;5041065;28;20029;-73
2022/07/25 07:57:55;;;;;;;8.75;5.80;;;;;;;40.25;27.78;98229.88;5053079;28;20466;-72
2022/07/25 08:00:21;;;;;;;6.50;5.80;;;;;;;41.12;26.78;98230.72;5049248;28;20139;-72
2022/07/25 08:02:50;;;;;;;11.27;5.68;;;;;;;41.34;26.45;98228.44;5029956;28;20503;-73
2022/07/25 08:05:29;;;;;;;9.07;6.28;;;;;;;41.55;26.13;98231.00;5046296;28;20031;-74
2022/07/25 08:07:55;;;;;;;7.90;5.75;;;;;;;42.11;25.79;98225.00;5048812;28;20513;-73
2022/07/25 08:10:26;;;;;;;5.85;5.22;;;;;;;42.28;25.05;98240.13;5049400;28;21859;-72
2022/07/25 08:12:52;;;;;;;5.95;5.25;;;;;;;42.25;25.15;98219.06;5043988;28;20086;-72
2022/07/25 08:15:19;;;;;;;7.15;5.20;;;;;;;41.53;26.11;98247.69;5041950;28;20475;-72
2022/07/25 08:17:46;;;;;;;8.27;6.25;;;;;;;42.11;25.40;98247.72;5045436;28;20025;-69
2022/07/25 08:20:12;;;;;;;13.02;5.93;;;;;;;41.05;26.28;98245.75;5047197;28;20021;-68
2022/07/25 08:22:45;;;;;;;12.90;6.00;;;;;;;40.28;27.41;98241.19;5038622;28;20021;-73
2022/07/25 08:25:19;;;;;;;6.75;5.78;;;;;;;41.33;26.05;98236.13;5048837;28;20032;-72
2022/07/25 08:27:44;;;;;;;8.48;5.68;;;;;;;41.58;25.73;98238.72;5048389;28;20017;-71
2022/07/25 08:30:13;;;;;;;9.60;6.05;;;;;;;41.11;26.28;98240.44;5040412;28;20052;-69
2022/07/25 08:32:51;;;;;;;8.05;6.05;;;;;;;40.50;26.84;98230.44;5045092;28;20037;-69
2022/07/25 08:35:18;;;;;;;8.43;6.03;;;;;;;41.29;25.87;98238.22;5045798;28;20023;-68
2022/07/25 08:37:44;;;;;;;11.10;6.13;;;;;;;42.76;24.43;98252.38;5038921;28;20037;-68
2022/07/25 08:40:12;;;;;;;13.27;6.15;;;;;;;43.05;24.31;98236.41;5043492;28;20024;-68
2022/07/25 08:42:37;;;;;;;7.22;5.32;;;;;;;42.69;24.65;98244.78;5062678;28;21686;-68
2022/07/25 08:45:04;;;;;;;7.00;5.38;;;;;;;44.03;23.49;98218.91;5048338;28;20044;-69
2022/07/25 08:47:31;;;;;;;7.63;5.70;;;;;;;43.28;23.79;98235.56;5051018;28;20031;-68
2022/07/25 08:49:57;;;;;;;7.50;5.55;;;;;;;42.73;24.39;98234.13;5048338;28;20021;-65
2022/07/25 08:52:22;;;;;;;7.68;5.57;;;;;;;43.28;23.55;98231.91;5042879;28;20115;-69
2022/07/25 08:54:49;;;;;;;8.63;6.10;;;;;;;43.33;23.09;98240.75;5045227;28;20098;-69
2022/07/25 08:57:14;;;;;;;10.23;4.82;;;;;;;44.56;22.80;98233.94;5052583;28;20145;-68
2022/07/25 08:59:41;;;;;;;11.10;5.90;;;;;;;44.37;22.50;98234.84;5051972;28;20032;-69
2022/07/25 09:02:09;;;;;;;7.15;5.38;;;;;;;44.63;22.43;98238.66;5042341;28;20375;-69
2022/07/25 09:04:35;;;;;;;15.65;5.80;;;;;;;44.56;22.07;98238.84;5043590;28;20036;-69
2022/07/25 09:07:03;;;;;;;8.00;5.55;;;;;;;43.52;22.92;98230.59;5044023;28;20021;-69
2022/07/25 09:09:37;;;;;;;7.55;5.03;;;;;;;44.19;23.08;98227.47;5051965;28;20478;-71
2022/07/25 09:12:03;;;;;;;5.97;4.97;;;;;;;44.87;21.62;98225.00;5045643;28;20983;-70
2022/07/25 09:14:29;;;;;;;5.72;4.57;;;;;;;44.57;22.43;98231.88;5048442;28;20509;-68
2022/07/25 09:16:55;;;;;;;7.28;5.22;;;;;;;45.11;21.34;98231.25;5047704;28;20111;-69
2022/07/25 09:19:23;;;;;;;6.20;5.03;;;;;;;44.91;20.79;98228.56;5062058;28;20033;-70
2022/07/25 09:22:08;;;;;;;7.35;4.80;;;;;;;44.39;22.24;98216.03;5050055;28;20044;-66
2022/07/25 09:24:34;;;;;;;6.00;4.65;;;;;;;44.25;21.67;98216.34;5047686;28;20037;-67
2022/07/25 09:27:08;;;;;;;5.15;4.50;;;;;;;44.54;21.88;98221.34;5049290;28;20032;-69
2022/07/25 09:29:34;;;;;;;5.70;4.68;;;;;;;44.47;21.41;98213.81;5051797;28;20024;-70
2022/07/25 09:32:01;;;;;;;7.10;4.72;;;;;;;43.74;21.49;98213.84;5044876;28;20104;-69
2022/07/25 09:34:36;;;;;;;5.57;4.80;;;;;;;43.44;22.52;98216.94;5049512;28;20060;-70
2022/07/25 09:37:04;;;;;;;6.18;5.10;;;;;;;43.52;22.26;98215.53;5043371;28;20029;-68
2022/07/25 09:39:41;;;;;;;8.10;5.05;;;;;;;41.60;23.53;98212.69;5052560;28;20107;-69
2022/07/25 09:42:21;;;;;;;5.80;4.70;;;;;;;43.80;22.11;98211.28;5044947;28;20028;-69
2022/07/25 09:45:12;;;;;;;7.00;5.40;;;;;;;43.36;22.16;98202.03;5051455;28;20034;-68
2022/07/25 09:47:52;;;;;;;5.88;5.15;;;;;;;44.71;21.30;98199.31;5047202;28;20044;-69
2022/07/25 09:50:18;;;;;;;7.65;4.45;;;;;;;44.12;21.23;98199.13;5047949;28;20040;-67
2022/07/25 09:52:45;;;;;;;7.88;4.32;;;;;;;44.76;21.21;98202.47;5048876;28;20029;-66
2022/07/25 09:55:12;;;;;;;5.82;4.63;;;;;;;44.39;21.41;98190.34;5050144;28;20029;-64
2022/07/25 09:57:38;;;;;;;6.45;4.53;;;;;;;43.82;22.75;98199.44;5044822;28;20076;-66
2022/07/25 10:00:05;;;;;;;5.82;4.47;;;;;;;45.15;20.68;98197.69;5046258;28;20030;-66
2022/07/25 10:02:46;;;;;;;5.75;4.50;;;;;;;46.60;19.98;98197.72;5048831;28;20028;-66
2022/07/25 10:05:31;;;;;;;4.47;4.07;;;;;;;46.46;19.79;98196.16;5045862;28;20032;-66
2022/07/25 10:07:57;;;;;;;6.95;4.60;;;;;;;44.57;20.92;98189.91;5042103;28;20025;-66
2022/07/25 10:10:35;;;;;;;3.90;3.47;;;;;;;44.98;19.39;98171.25;5043168;28;21047;-66
2022/07/25 10:13:06;;;;;;;5.65;3.50;;;;;;;44.19;19.77;98186.75;5039029;28;20029;-66
2022/07/25 10:15:48;;;;;;;6.78;4.10;;;;;;;42.88;21.51;98172.88;5046235;28;20017;-65
2022/07/25 10:18:15;;;;;;;4.30;3.90;;;;;;;43.73;20.71;98163.00;5046857;28;20029;-65
2022/07/25 10:20:43;;;;;;;5.03;3.80;;;;;;;44.14;20.33;98168.13;5042279;28;20029;-66
2022/07/25 10:23:17;;;;;;;4.07;3.67;;;;;;;42.93;21.41;98162.25;5039678;28;20063;-66
2022/07/25 10:25:43;;;;;;;3.60;3.30;;;;;;;44.17;20.50;98155.84;5038111;28;20035;-65
2022/07/25 10:28:09;;;;;;;4.00;3.60;;;;;;;44.92;20.31;98153.09;5036597;28;20035;-64
2022/07/25 10:30:35;;;;;;;4.47;3.67;;;;;;;46.13;18.76;98154.28;5044202;28;20254;-67
2022/07/25 10:33:13;;;;;;;5.82;3.78;;;;;;;45.18;19.92;98153.19;5040815;28;20419;-68
2022/07/25 10:35:38;;;;;;;3.47;3.15;;;;;;;45.31;19.09;98156.88;5042895;28;20107;-66
2022/07/25 10:38:05;;;;;;;3.80;3.40;;;;;;;45.97;19.32;98147.94;5041918;28;20029;-66
2022/07/25 10:40:38;;;;;;;4.45;3.30;;;;;;;45.28;18.98;98160.66;5043920;28;20587;-66
2022/07/25 10:43:04;;;;;;;4.63;3.60;;;;;;;44.53;19.40;98146.38;5039822;28;20114;-65
2022/07/25 10:45:47;;;;;;;4.50;3.63;;;;;;;42.33;20.99;98145.03;5041811;28;20051;-65
2022/07/25 10:48:21;;;;;;;3.63;3.10;;;;;;;43.62;20.11;98142.50;5045057;28;20283;-65
2022/07/25 10:50:58;;;;;;;3.78;3.28;;;;;;;44.53;19.02;98142.72;5048886;28;20426;-66
2022/07/25 10:53:49;;;;;;;3.60;3.15;;;;;;;40.83;22.12;98143.06;5041204;28;20188;-65
2022/07/25 10:56:24;;;;;;;6.25;3.10;;;;;;;44.14;19.68;98133.91;5036795;28;20041;-66
2022/07/25 10:58:52;;;;;;;3.63;3.00;;;;;;;44.50;19.07;98133.03;5038614;28;20024;-65
2022/07/25 11:01:24;;;;;;;4.13;2.97;;;;;;;42.32;21.18;98134.91;5041121;28;20032;-65
2022/07/25 11:03:52;;;;;;;6.28;3.20;;;;;;;43.51;20.25;98132.13;5040576;28;20449;-65
2022/07/25 11:06:28;;;;;;;4.00;3.10;;;;;;;44.65;19.25;98118.34;5038319;28;20029;-65
2022/07/25 11:08:56;;;;;;;6.05;3.50;;;;;;;43.38;20.15;98111.28;5040724;28;20067;-66
2022/07/25 11:11:32;;;;;;;6.78;3.30;;;;;;;43.31;20.57;98117.94;5045553;28;20025;-67
2022/07/25 11:13:58;;;;;;;5.18;3.22;;;;;;;45.01;19.87;98116.09;5046656;28;20374;-68
2022/07/25 11:16:26;;;;;;;2.92;2.63;;;;;;;45.83;18.99;98115.66;5046206;28;20723;-66
2022/07/25 11:18:53;;;;;;;;;;;;;;;46.82;18.67;98106.16;5049191;28;20892;-68
2022/07/25 11:21:18;;;;;;;3.25;2.83;;;;;;;47.40;17.76;98111.31;5044105;28;20309;-68
2022/07/25 11:23:50;;;;;;;4.37;3.10;;;;;;;47.77;17.40;98105.78;5040394;28;20025;-66
2022/07/25 11:26:15;;;;;;;3.13;2.70;;;;;;;47.25;17.53;98105.38;5038429;28;20370;-71
2022/07/25 11:28:44;;;;;;;3.88;3.30;;;;;;;46.25;18.64;98104.06;5039355;28;20700;-69